Time;durP1;ratioP1;P1;durP2;ratioP2;P2;SDS_P1;SDS_P2;PMS_P1;PMS_P2;Temp;Humidity;BMP_temperature;BMP_pressure;BME280_temperature;BME280_humidity;BME280_pressure;Samples;Min_cycle;Max_cycle;Signal;HPM_P1;HPM_P2
2024/02/12 00:02:18;;;;;;;0.52;0.40;;;8.60;99.90;;;;;;5020627;28;20021;-65
2024/02/12 00:04:54;;;;;;;2.95;0.90;;;8.60;99.90;;;;;;5017041;28;20600;-65
2024/02/12 00:07:20;;;;;;;7.40;0.60;;;8.50;99.90;;;;;;5019877;28;20034;-66
2024/02/12 00:09:47;;;;;;;1.35;0.70;;;8.50;99.90;;;;;;5022128;28;20028;-65
2024/02/12 00:12:13;;;;;;;1.48;0.70;;;8.60;99.90;;;;;;5020700;28;20044;-65
2024/02/12 00:14:40;;;;;;;0.95;0.60;;;8.60;99.90;;;;;;5015433;28;20509;-65
2024/02/12 00:17:09;;;;;;;13.00;0.65;;;8.50;99.90;;;;;;5037513;28;20482;-65
2024/02/12 00:19:35;;;;;;;0.30;0.30;;;8.50;99.90;;;;;;5020172;28;20378;-65
2024/02/12 00:22:04;;;;;;;2.40;1.08;;;8.50;99.90;;;;;;5021923;28;20026;-65
2024/02/12 00:24:30;;;;;;;0.85;0.47;;;8.50;99.90;;;;;;5016967;28;20487;-65
2024/02/12 00:27:02;;;;;;;0.50;0.45;;;8.50;99.90;;;;;;5036400;28;20061;-65
2024/02/12 00:29:30;;;;;;;2.08;1.50;;;8.50;99.90;;;;;;5021060;28;20111;-65
2024/02/12 00:31:58;;;;;;;1.80;1.15;;;8.50;99.90;;;;;;5019532;28;20041;-65
2024/02/12 00:34:28;;;;;;;1.27;0.60;;;8.60;99.90;;;;;;5025495;28;20389;-65
2024/02/12 00:36:55;;;;;;;0.85;0.35;;;8.60;99.90;;;;;;5020987;28;20025;-65
2024/02/12 00:39:21;;;;;;;1.25;0.52;;;8.60;99.90;;;;;;5017506;28;20112;-65
2024/02/12 00:41:53;;;;;;;2.03;1.02;;;8.50;99.90;;;;;;5025048;28;20030;-65
2024/02/12 00:44:20;;;;;;;1.23;0.90;;;8.50;99.90;;;;;;5022991;28;20029;-65
2024/02/12 00:46:47;;;;;;;1.70;0.57;;;8.50;99.90;;;;;;5021099;28;20144;-65
2024/02/12 00:49:17;;;;;;;2.65;0.75;;;8.50;99.90;;;;;;5008312;28;20037;-65
2024/02/12 00:51:43;;;;;;;1.13;0.68;;;8.50;99.90;;;;;;5009175;28;20080;-65
2024/02/12 00:54:14;;;;;;;1.38;0.93;;;8.50;99.90;;;;;;5027236;28;20112;-65
2024/02/12 00:56:44;;;;;;;1.10;0.73;;;8.50;99.90;;;;;;5028530;28;20029;-65
2024/02/12 00:59:11;;;;;;;1.00;0.47;;;8.50;99.90;;;;;;5024542;28;20837;-65
2024/02/12 01:01:38;;;;;;;1.25;0.80;;;8.50;99.90;;;;;;5027315;28;20017;-65
2024/02/12 01:04:07;;;;;;;2.47;0.52;;;8.50;99.90;;;;;;5025058;28;20032;-65
2024/02/12 01:06:33;;;;;;;0.65;0.52;;;8.50;99.90;;;;;;5019110;28;20037;-65
2024/02/12 01:09:00;;;;;;;0.88;0.73;;;8.50;99.90;;;;;;5022288;28;20064;-65
2024/02/12 01:11:28;;;;;;;0.52;0.40;;;8.50;99.90;;;;;;5029681;28;20505;-66
2024/02/12 01:13:55;;;;;;;1.27;0.50;;;8.50;99.90;;;;;;5027760;28;20049;-66
2024/02/12 01:16:24;;;;;;;1.27;0.77;;;8.50;99.90;;;;;;5006059;28;20038;-66
2024/02/12 01:18:53;;;;;;;2.78;0.98;;;8.50;99.90;;;;;;5026198;28;20029;-66
2024/02/12 01:21:20;;;;;;;0.30;0.30;;;8.40;99.90;;;;;;5025001;28;20026;-65
2024/02/12 01:23:46;;;;;;;2.38;1.10;;;8.50;99.90;;;;;;5027558;28;20128;-65
2024/02/12 01:26:15;;;;;;;1.08;0.75;;;8.40;99.90;;;;;;5012467;28;20113;-65
2024/02/12 01:28:41;;;;;;;0.45;0.35;;;8.50;99.90;;;;;;5021567;28;20038;-65
2024/02/12 01:31:15;;;;;;;0.63;0.60;;;8.50;99.90;;;;;;5025489;28;20030;-65
2024/02/12 01:33:42;;;;;;;1.17;0.57;;;8.50;99.90;;;;;;5022050;28;20516;-65
2024/02/12 01:36:08;;;;;;;0.10;0.10;;;8.40;99.90;;;;;;5022689;28;20025;-65
2024/02/12 01:38:34;;;;;;;1.63;0.60;;;8.40;99.90;;;;;;5022961;28;20034;-65
2024/02/12 01:41:01;;;;;;;1.42;0.63;;;8.40;99.90;;;;;;5023283;28;20091;-65
2024/02/12 01:43:31;;;;;;;0.95;0.75;;;8.50;99.90;;;;;;5027840;28;20452;-65
2024/02/12 01:45:59;;;;;;;0.60;0.57;;;8.50;99.90;;;;;;5020851;28;20037;-65
2024/02/12 01:48:26;;;;;;;3.20;0.93;;;8.50;99.90;;;;;;5022674;28;20041;-65
2024/02/12 01:50:52;;;;;;;3.15;0.75;;;8.50;99.90;;;;;;5026958;28;20048;-65
2024/02/12 01:53:19;;;;;;;0.40;0.38;;;8.50;99.90;;;;;;5038083;28;20367;-65
2024/02/12 01:55:49;;;;;;;0.98;0.60;;;8.50;99.90;;;;;;5024498;28;20029;-65
2024/02/12 01:58:16;;;;;;;0.68;0.40;;;8.50;99.90;;;;;;5027360;28;20022;-65
2024/02/12 02:00:45;;;;;;;2.28;0.95;;;8.50;99.90;;;;;;5021517;28;20030;-65
2024/02/12 02:03:11;;;;;;;0.80;0.40;;;8.50;99.90;;;;;;5026883;28;20579;-65
2024/02/12 02:05:37;;;;;;;3.35;0.52;;;8.40;99.90;;;;;;5021121;28;20115;-65
2024/02/12 02:08:03;;;;;;;0.50;0.30;;;8.50;99.90;;;;;;5025976;28;20537;-65
2024/02/12 02:10:30;;;;;;;0.70;0.50;;;8.40;99.90;;;;;;5026359;28;20026;-65
2024/02/12 02:12:59;;;;;;;0.52;0.43;;;8.50;99.90;;;;;;5028485;28;20033;-65
2024/02/12 02:15:26;;;;;;;5.25;0.60;;;8.50;99.90;;;;;;5025134;28;20034;-65
2024/02/12 02:17:52;;;;;;;0.20;0.20;;;8.50;99.90;;;;;;5025739;28;20414;-65
2024/02/12 02:20:20;;;;;;;1.00;0.63;;;8.40;99.90;;;;;;5028717;28;20052;-65
2024/02/12 02:22:47;;;;;;;0.35;0.35;;;8.40;99.90;;;;;;5022918;28;20605;-65
2024/02/12 02:25:13;;;;;;;0.30;0.20;;;8.30;99.90;;;;;;5024430;28;20552;-65
2024/02/12 02:27:39;;;;;;;0.20;0.20;;;8.30;99.90;;;;;;5024843;28;20022;-65
2024/02/12 02:30:07;;;;;;;0.77;0.63;;;8.30;99.90;;;;;;5026752;28;20041;-65
2024/02/12 02:32:35;;;;;;;0.50;0.38;;;8.30;99.90;;;;;;5026352;28;20075;-65
2024/02/12 02:35:04;;;;;;;2.47;0.50;;;8.30;99.90;;;;;;5028426;28;20033;-65
2024/02/12 02:37:31;;;;;;;0.13;0.13;;;8.30;99.90;;;;;;5024339;28;20025;-65
2024/02/12 02:39:57;;;;;;;4.15;0.35;;;8.30;99.90;;;;;;5039409;28;20362;-65
2024/02/12 02:42:23;;;;;;;0.20;0.20;;;8.30;99.90;;;;;;5024175;28;20052;-65
2024/02/12 02:44:48;;;;;;;0.90;0.63;;;8.30;99.90;;;;;;5023862;28;20061;-65
2024/02/12 02:47:16;;;;;;;1.95;0.45;;;8.30;99.90;;;;;;5021580;28;20038;-65
2024/02/12 02:49:42;;;;;;;0.30;0.30;;;8.30;99.90;;;;;;5027392;28;20021;-65
2024/02/12 02:52:07;;;;;;;1.40;0.82;;;8.30;99.90;;;;;;5022050;28;20052;-65
2024/02/12 02:54:33;;;;;;;1.58;0.57;;;8.30;99.90;;;;;;5022102;28;20034;-65
2024/02/12 02:57:00;;;;;;;0.63;0.57;;;8.30;99.90;;;;;;5039358;28;20030;-65
2024/02/12 02:59:26;;;;;;;0.30;0.30;;;8.40;99.90;;;;;;5025491;28;20034;-65
2024/02/12 03:01:52;;;;;;;0.50;0.40;;;8.30;99.90;;;;;;5020414;28;20034;-65
2024/02/12 03:04:17;;;;;;;0.10;0.10;;;8.30;99.90;;;;;;5018034;28;20175;-65
2024/02/12 03:06:44;;;;;;;1.02;0.47;;;8.20;99.90;;;;;;5030430;28;20033;-66
2024/02/12 03:09:10;;;;;;;6.82;0.68;;;8.20;99.90;;;;;;5037667;28;20026;-66
2024/02/12 03:11:39;;;;;;;0.45;0.40;;;8.20;99.90;;;;;;5023727;28;20025;-66
2024/02/12 03:14:08;;;;;;;0.75;0.50;;;8.20;99.90;;;;;;5025345;28;20813;-64
2024/02/12 03:16:37;;;;;;;1.75;0.60;;;8.10;99.90;;;;;;5023391;28;20022;-64
2024/02/12 03:19:05;;;;;;;1.48;0.90;;;8.10;99.90;;;;;;5040250;28;20108;-64
2024/02/12 03:21:31;;;;;;;0.50;0.30;;;8.20;99.90;;;;;;5023758;28;20154;-64
2024/02/12 03:23:59;;;;;;;0.55;0.40;;;8.20;99.90;;;;;;5026454;28;20025;-64
2024/02/12 03:26:25;;;;;;;3.60;0.63;;;8.20;99.90;;;;;;5021431;28;20026;-64
2024/02/12 03:28:51;;;;;;;1.85;0.57;;;8.20;99.90;;;;;;5022760;28;20033;-64
2024/02/12 03:31:17;;;;;;;0.75;0.50;;;8.10;99.90;;;;;;5023861;28;20467;-64
2024/02/12 03:33:43;;;;;;;0.50;0.50;;;8.10;99.90;;;;;;5010609;28;20033;-65
2024/02/12 03:36:09;;;;;;;1.20;0.43;;;8.00;99.90;;;;;;5026223;28;20382;-65
2024/02/12 03:38:37;;;;;;;1.08;0.63;;;8.10;99.90;;;;;;5020265;28;20038;-65
2024/02/12 03:41:04;;;;;;;0.52;0.47;;;8.00;99.90;;;;;;5020277;28;20049;-65
2024/02/12 03:43:30;;;;;;;1.65;0.45;;;8.10;99.90;;;;;;5023932;28;20053;-65
2024/02/12 03:45:56;;;;;;;4.45;1.38;;;8.10;99.90;;;;;;5024255;28;20413;-65
2024/02/12 04:02:07;;;;;;;2.33;1.33;;;8.10;99.90;;;;;;5024442;28;20959;-65
2024/02/12 04:04:33;;;;;;;1.35;0.85;;;8.10;99.90;;;;;;5023232;28;20060;-66
2024/02/12 04:07:01;;;;;;;3.00;1.25;;;8.10;99.90;;;;;;5026114;28;20021;-65
2024/02/12 04:09:27;;;;;;;1.48;0.90;;;8.20;99.90;;;;;;5023525;28;20109;-66
2024/02/12 04:11:54;;;;;;;1.30;1.17;;;8.10;99.90;;;;;;5022408;28;20117;-66
2024/02/12 04:14:20;;;;;;;1.75;0.82;;;8.10;99.90;;;;;;5022338;28;20033;-66
2024/02/12 04:16:52;;;;;;;0.80;0.60;;;8.10;99.90;;;;;;5022638;28;20037;-66
2024/02/12 04:19:24;;;;;;;2.15;1.10;;;8.10;99.90;;;;;;5023073;28;20036;-66
2024/02/12 04:21:52;;;;;;;3.60;1.10;;;8.10;99.90;;;;;;5025243;28;20113;-66
2024/02/12 04:24:19;;;;;;;2.55;1.48;;;8.20;99.90;;;;;;5019545;28;20030;-66
2024/02/12 04:26:46;;;;;;;1.30;1.08;;;8.20;99.90;;;;;;5026701;28;20036;-66
2024/02/12 04:29:14;;;;;;;2.10;1.05;;;8.20;99.90;;;;;;5020706;28;20021;-66
2024/02/12 04:31:40;;;;;;;5.43;1.02;;;8.20;99.90;;;;;;5023655;28;20025;-66
2024/02/12 04:34:07;;;;;;;10.02;2.17;;;8.20;99.90;;;;;;5025393;28;20079;-66
2024/02/12 04:36:40;;;;;;;1.80;0.82;;;8.30;99.90;;;;;;5023424;28;20018;-66
2024/02/12 04:39:06;;;;;;;2.17;0.60;;;8.20;99.90;;;;;;5023195;28;20037;-66
2024/02/12 04:41:39;;;;;;;1.98;1.17;;;8.20;99.90;;;;;;5026687;28;20021;-64
2024/02/12 04:44:05;;;;;;;1.67;1.08;;;8.20;99.90;;;;;;5026209;28;20517;-64
2024/02/12 04:46:31;;;;;;;1.23;0.70;;;8.30;99.90;;;;;;5024860;28;20112;-65
2024/02/12 04:48:58;;;;;;;4.85;0.88;;;8.40;99.90;;;;;;5021074;28;20105;-65
2024/02/12 04:51:24;;;;;;;1.23;0.88;;;8.40;99.90;;;;;;5017397;28;20551;-65
2024/02/12 04:53:52;;;;;;;1.58;0.98;;;8.50;99.90;;;;;;5021294;28;20144;-65
2024/02/12 04:56:18;;;;;;;1.88;0.93;;;8.50;99.90;;;;;;5022105;28;20033;-64
2024/02/12 04:58:43;;;;;;;0.52;0.50;;;8.50;99.90;;;;;;5025870;28;20037;-64
2024/02/12 05:01:09;;;;;;;0.85;0.60;;;8.50;99.90;;;;;;5020905;28;20026;-65
2024/02/12 05:03:36;;;;;;;3.03;1.15;;;8.50;99.90;;;;;;5022131;28;20026;-65
2024/02/12 05:06:02;;;;;;;1.42;0.77;;;8.50;99.90;;;;;;5023451;28;20037;-65
2024/02/12 05:08:28;;;;;;;0.75;0.65;;;8.50;99.90;;;;;;5024417;28;20037;-66
2024/02/12 05:10:57;;;;;;;2.10;1.00;;;8.50;99.90;;;;;;5024613;28;20038;-66
2024/02/12 05:13:24;;;;;;;1.25;0.85;;;8.50;99.90;;;;;;5020276;28;20537;-65
2024/02/12 05:15:54;;;;;;;2.58;0.90;;;8.50;99.90;;;;;;5022575;28;20030;-65
2024/02/12 05:23:52;;;;;;;2.15;0.70;;;8.60;99.90;;;;;;5013330;28;20123;-65
2024/02/12 05:26:18;;;;;;;2.05;0.90;;;8.60;99.90;;;;;;5021673;28;20496;-65
2024/02/12 05:28:44;;;;;;;2.83;1.15;;;8.60;99.90;;;;;;5022977;28;20116;-65
2024/02/12 05:31:10;;;;;;;1.95;0.95;;;8.70;99.90;;;;;;5024391;28;20108;-67
2024/02/12 05:33:36;;;;;;;5.05;0.65;;;8.70;99.90;;;;;;5019685;28;20095;-66
2024/02/12 05:36:04;;;;;;;3.88;0.93;;;8.70;99.90;;;;;;5028205;28;20033;-66
2024/02/12 05:38:31;;;;;;;2.25;1.05;;;8.60;99.90;;;;;;5030411;28;20204;-65
2024/02/12 05:40:57;;;;;;;1.85;0.55;;;8.60;99.90;;;;;;5036408;28;20025;-66
2024/02/12 05:43:23;;;;;;;1.95;1.33;;;8.60;99.90;;;;;;5017873;28;20037;-66
2024/02/12 05:45:48;;;;;;;1.70;0.70;;;8.50;99.90;;;;;;5029368;28;20038;-66
2024/02/12 05:48:14;;;;;;;1.80;1.05;;;8.50;99.90;;;;;;5045109;28;20037;-66
2024/02/12 05:50:40;;;;;;;0.93;0.68;;;8.50;99.90;;;;;;5024539;28;20025;-65
2024/02/12 05:53:08;;;;;;;1.15;0.77;;;8.50;99.90;;;;;;5035342;28;20037;-65
2024/02/12 05:55:39;;;;;;;2.20;1.02;;;8.40;99.90;;;;;;5036535;28;20029;-65
2024/02/12 05:58:08;;;;;;;5.13;1.73;;;8.40;99.90;;;;;;5024059;28;20475;-65
2024/02/12 06:00:34;;;;;;;2.60;0.80;;;8.40;99.90;;;;;;5024450;28;20026;-65
2024/02/12 06:03:00;;;;;;;1.80;0.55;;;8.40;99.90;;;;;;5025626;28;20040;-65
2024/02/12 06:05:26;;;;;;;3.25;1.08;;;8.40;99.90;;;;;;5032197;28;20444;-65
2024/02/12 06:07:52;;;;;;;4.35;1.65;;;8.30;99.90;;;;;;5028485;28;20033;-65
2024/02/12 06:10:18;;;;;;;1.35;0.77;;;8.30;99.90;;;;;;5023872;28;20479;-65
2024/02/12 06:12:44;;;;;;;1.98;1.20;;;8.40;99.90;;;;;;5030092;28;20041;-65
2024/02/12 06:15:11;;;;;;;4.40;2.28;;;8.30;99.90;;;;;;5047317;28;20836;-65
2024/02/12 06:17:37;;;;;;;3.75;1.63;;;8.30;99.90;;;;;;5043336;28;20042;-65
2024/02/12 06:20:05;;;;;;;1.88;1.20;;;8.30;99.90;;;;;;5026805;28;20053;-66
2024/02/12 06:22:34;;;;;;;3.53;1.73;;;8.30;99.90;;;;;;5028980;28;20033;-65
2024/02/12 06:25:05;;;;;;;1.50;1.17;;;8.30;99.90;;;;;;5028256;28;20057;-65
2024/02/12 06:27:31;;;;;;;9.85;1.48;;;8.30;99.90;;;;;;5047120;28;20536;-65
2024/02/12 06:29:57;;;;;;;2.28;1.23;;;8.30;99.90;;;;;;5028927;28;20053;-65
2024/02/12 06:32:23;;;;;;;4.95;1.33;;;8.20;99.90;;;;;;5022071;28;20052;-65
2024/02/12 06:34:49;;;;;;;2.97;1.00;;;8.20;99.90;;;;;;5031729;28;20065;-65
2024/02/12 06:37:15;;;;;;;1.55;0.85;;;8.20;99.90;;;;;;5032462;28;20076;-65
2024/02/12 06:39:43;;;;;;;2.03;1.23;;;8.20;99.90;;;;;;5016972;28;20080;-66
2024/02/12 06:42:08;;;;;;;2.15;1.00;;;8.20;99.90;;;;;;5027780;28;20441;-66
2024/02/12 06:44:34;;;;;;;11.93;1.13;;;8.20;99.90;;;;;;5031427;28;20112;-66
2024/02/12 06:47:00;;;;;;;2.10;1.40;;;8.20;99.90;;;;;;5027505;28;20168;-66
2024/02/12 06:49:26;;;;;;;2.25;1.25;;;8.10;99.90;;;;;;5018581;28;20043;-66
2024/02/12 06:51:52;;;;;;;10.77;1.30;;;8.00;99.90;;;;;;5038166;28;20042;-66
2024/02/12 06:54:18;;;;;;;3.85;1.65;;;8.10;99.90;;;;;;5015129;28;20038;-66
2024/02/12 06:56:44;;;;;;;10.20;2.63;;;8.00;99.90;;;;;;5044457;28;20030;-66
2024/02/12 06:59:10;;;;;;;5.57;2.00;;;8.00;99.90;;;;;;5027046;28;20030;-66
2024/02/12 07:01:40;;;;;;;5.85;1.73;;;8.10;99.90;;;;;;5019954;28;20034;-66
2024/02/12 07:04:06;;;;;;;3.85;1.50;;;8.00;99.90;;;;;;5010970;28;20038;-66
2024/02/12 07:06:32;;;;;;;4.55;1.63;;;8.00;99.90;;;;;;5013117;28;20030;-66
2024/02/12 07:08:58;;;;;;;5.93;1.88;;;8.00;99.90;;;;;;5011891;28;20391;-66
2024/02/12 07:13:52;;;;;;;8.10;1.42;;;8.00;99.90;;;;;;5028842;28;20049;-52
2024/02/12 07:16:20;;;;;;;2.17;1.55;;;8.00;99.90;;;;;;5023251;28;20029;-52
2024/02/12 07:18:48;;;;;;;2.03;1.10;;;8.10;99.90;;;;;;5021072;28;20025;-50
2024/02/12 07:21:15;;;;;;;2.80;1.45;;;8.10;99.90;;;;;;5031253;28;20068;-53
2024/02/12 07:23:41;;;;;;;3.20;1.55;;;8.20;99.90;;;;;;5011457;28;20025;-51
2024/02/12 07:26:09;;;;;;;21.67;5.47;;;8.20;99.90;;;;;;5020117;28;20509;-56
2024/02/12 07:28:35;;;;;;;4.68;2.58;;;8.30;99.90;;;;;;5011229;28;20737;-55
2024/02/12 07:31:03;;;;;;;5.88;2.30;;;8.20;99.90;;;;;;5027613;28;20040;-51
2024/02/12 07:33:29;;;;;;;5.70;1.80;;;8.30;99.90;;;;;;5012860;28;20037;-51
2024/02/12 07:35:55;;;;;;;2.47;1.40;;;8.40;99.90;;;;;;5031686;28;20028;-54
2024/02/12 07:38:21;;;;;;;4.95;1.70;;;8.40;99.90;;;;;;5014613;28;20025;-75
2024/02/12 07:40:48;;;;;;;2.50;1.45;;;8.30;99.90;;;;;;5002080;28;20025;-75
2024/02/12 07:43:14;;;;;;;7.28;1.73;;;8.40;99.90;;;;;;5015808;28;20159;-75
2024/02/12 07:45:40;;;;;;;2.53;1.17;;;8.30;99.90;;;;;;5012492;28;20104;-75
2024/02/12 07:48:06;;;;;;;4.35;1.63;;;8.30;99.90;;;;;;4994447;28;20105;-76
2024/02/12 07:50:31;;;;;;;2.78;1.73;;;8.30;99.90;;;;;;5010225;28;20026;-75
2024/02/12 07:52:57;;;;;;;8.40;1.63;;;8.40;99.90;;;;;;5023741;28;20032;-75
2024/02/12 07:55:23;;;;;;;3.08;0.95;;;8.40;99.90;;;;;;4993967;28;20036;-76
2024/02/12 07:57:49;;;;;;;3.85;2.40;;;8.50;99.90;;;;;;4999264;28;20079;-76
2024/02/12 08:00:17;;;;;;;3.47;1.50;;;8.50;99.90;;;;;;4999600;28;20466;-76
2024/02/12 08:02:47;;;;;;;6.80;1.70;;;8.50;99.90;;;;;;4995993;28;20085;-76
2024/02/12 08:05:15;;;;;;;4.85;1.88;;;8.50;99.90;;;;;;5022032;28;20407;-76
2024/02/12 08:07:41;;;;;;;1.50;1.20;;;8.50;99.90;;;;;;5018309;28;20033;-76
2024/02/12 08:10:07;;;;;;;2.97;1.40;;;8.40;99.90;;;;;;5029042;28;20544;-77
2024/02/12 08:12:34;;;;;;;2.72;1.63;;;8.40;99.90;;;;;;4998678;28;20517;-76
2024/02/12 08:15:00;;;;;;;2.55;0.95;;;8.40;99.90;;;;;;5027673;28;20035;-71
2024/02/12 08:17:26;;;;;;;3.33;1.65;;;8.40;99.90;;;;;;5007827;28;20029;-71
2024/02/12 08:19:52;;;;;;;3.63;1.25;;;8.40;99.90;;;;;;5026305;28;20041;-72
2024/02/12 08:22:18;;;;;;;1.08;0.80;;;8.50;99.90;;;;;;5009544;28;20040;-73
2024/02/12 08:24:44;;;;;;;3.55;1.35;;;8.50;99.90;;;;;;5026708;28;20104;-71
2024/02/12 08:27:09;;;;;;;6.30;1.77;;;8.50;99.90;;;;;;5015400;28;20033;-71
2024/02/12 08:29:35;;;;;;;1.67;1.25;;;8.60;99.90;;;;;;5001405;28;20026;-71
2024/02/12 08:32:03;;;;;;;5.40;1.77;;;8.60;99.90;;;;;;5016952;28;20037;-71
2024/02/12 08:34:30;;;;;;;7.30;1.83;;;8.40;99.90;;;;;;5018587;28;20060;-71
2024/02/12 08:36:57;;;;;;;1.48;1.08;;;8.50;99.90;;;;;;5017118;28;20048;-71
2024/02/12 08:39:23;;;;;;;7.97;1.65;;;8.40;99.90;;;;;;5018170;28;20029;-71
2024/02/12 08:41:49;;;;;;;8.25;1.30;;;8.50;99.90;;;;;;5013930;28;20043;-72
2024/02/12 08:44:18;;;;;;;2.20;0.98;;;8.50;99.90;;;;;;5028334;28;20105;-72
2024/02/12 08:46:47;;;;;;;2.40;1.70;;;8.60;99.90;;;;;;5017639;28;20037;-72
2024/02/12 08:49:14;;;;;;;4.22;1.70;;;8.50;99.90;;;;;;5023667;28;20034;-71
2024/02/12 08:51:41;;;;;;;2.90;1.15;;;8.50;99.90;;;;;;5009992;28;20101;-72
2024/02/12 08:54:06;;;;;;;10.60;1.58;;;8.60;99.90;;;;;;5015827;28;20359;-71
2024/02/12 08:56:36;;;;;;;5.05;1.95;;;8.60;99.90;;;;;;5018437;28;20156;-71
2024/02/12 08:59:01;;;;;;;2.85;1.52;;;8.60;99.90;;;;;;5025004;28;20041;-71
2024/02/12 09:01:27;;;;;;;3.38;1.52;;;8.50;99.90;;;;;;5014762;28;20056;-71
2024/02/12 09:03:56;;;;;;;4.68;1.67;;;8.70;99.90;;;;;;5020400;28;20057;-71
2024/02/12 09:06:22;;;;;;;2.40;1.35;;;8.60;99.90;;;;;;5015766;28;20386;-71
2024/02/12 09:08:47;;;;;;;3.60;1.67;;;8.50;99.90;;;;;;4981331;28;20034;-71
2024/02/12 09:11:13;;;;;;;5.28;2.67;;;8.50;99.90;;;;;;5021076;28;20505;-71
2024/02/12 09:13:40;;;;;;;7.38;2.15;;;8.40;99.90;;;;;;5022397;28;20052;-71
2024/02/12 09:16:09;;;;;;;6.68;2.13;;;8.30;99.90;;;;;;5008688;28;20028;-71
2024/02/12 09:18:36;;;;;;;4.30;1.75;;;8.40;99.90;;;;;;5012978;28;20033;-72
2024/02/12 09:21:02;;;;;;;5.50;2.00;;;8.50;99.90;;;;;;5012996;28;20406;-71
2024/02/12 09:23:27;;;;;;;2.97;1.65;;;8.40;99.90;;;;;;4982647;28;20037;-71
2024/02/12 09:25:54;;;;;;;11.48;2.67;;;8.40;99.90;;;;;;5009616;28;20035;-71
2024/02/12 09:28:20;;;;;;;6.72;2.63;;;8.50;99.90;;;;;;4998462;28;20036;-71
2024/02/12 09:30:52;;;;;;;4.53;2.22;;;8.50;99.90;;;;;;5014652;28;20030;-71
2024/02/12 09:33:18;;;;;;;3.50;2.20;;;8.50;99.90;;;;;;5010715;28;20041;-71
2024/02/12 09:35:44;;;;;;;2.75;1.02;;;8.50;99.90;;;;;;4988265;28;20052;-71
2024/02/12 09:38:11;;;;;;;5.20;1.73;;;8.40;99.90;;;;;;5017446;28;20025;-71
2024/02/12 09:40:41;;;;;;;5.90;1.67;;;8.40;99.90;;;;;;5028286;28;20044;-71
2024/02/12 09:43:11;;;;;;;5.50;1.57;;;8.50;99.90;;;;;;5015409;28;20045;-71
2024/02/12 09:45:45;;;;;;;9.00;1.63;;;8.50;99.90;;;;;;5022175;28;20022;-71
2024/02/12 09:48:14;;;;;;;1.38;0.98;;;8.50;99.90;;;;;;5019318;28;20382;-71
2024/02/12 09:50:44;;;;;;;6.60;1.98;;;8.50;99.90;;;;;;5008949;28;20068;-71
2024/02/12 09:53:23;;;;;;;3.20;1.55;;;8.50;99.90;;;;;;5005902;28;20030;-72
2024/02/12 09:55:50;;;;;;;1.52;1.08;;;8.50;99.90;;;;;;5019015;28;20026;-72
2024/02/12 09:58:16;;;;;;;2.83;2.10;;;8.50;99.90;;;;;;5004998;28;20025;-72
2024/02/12 10:00:44;;;;;;;10.55;1.67;;;8.50;99.90;;;;;;5001662;28;20018;-71
2024/02/12 10:03:11;;;;;;;1.27;0.82;;;8.50;99.90;;;;;;5026713;28;20121;-72
2024/02/12 10:05:43;;;;;;;3.95;1.48;;;8.50;99.90;;;;;;5013337;28;20096;-71
2024/02/12 10:08:23;;;;;;;5.03;1.65;;;8.50;99.90;;;;;;5026692;28;20048;-71
2024/02/12 10:10:50;;;;;;;3.58;1.10;;;8.60;99.90;;;;;;5018675;28;20109;-72
2024/02/12 10:13:16;;;;;;;2.80;1.42;;;8.50;99.90;;;;;;5025595;28;20065;-71
2024/02/12 10:15:43;;;;;;;2.15;1.48;;;8.60;99.90;;;;;;5024382;28;20026;-71
2024/02/12 10:18:12;;;;;;;3.63;1.73;;;8.60;99.90;;;;;;5003132;28;20021;-71
2024/02/12 10:20:39;;;;;;;2.70;1.73;;;8.70;99.90;;;;;;5024175;28;20109;-71
2024/02/12 10:23:09;;;;;;;3.45;1.65;;;8.80;99.90;;;;;;4998457;28;20033;-71
2024/02/12 10:25:50;;;;;;;1.30;0.93;;;8.70;99.90;;;;;;5008826;28;20025;-71
2024/02/12 10:28:18;;;;;;;3.30;1.30;;;8.70;99.90;;;;;;5010261;28;20037;-71
2024/02/12 10:30:47;;;;;;;3.63;1.35;;;8.80;99.90;;;;;;5027461;28;20022;-71
2024/02/12 10:33:14;;;;;;;5.18;1.88;;;8.90;99.90;;;;;;5009793;28;20445;-70
2024/02/12 10:35:46;;;;;;;1.70;1.05;;;8.90;99.90;;;;;;5027625;28;20038;-70
2024/02/12 10:38:14;;;;;;;;;;;9.00;99.90;;;;;;5011886;28;20033;-70
2024/02/12 10:41:19;;;;;;;2.67;1.02;;;8.90;99.90;;;;;;5012027;28;19909;-69
2024/02/12 10:43:46;;;;;;;3.28;1.48;;;8.90;99.90;;;;;;5010074;28;20021;-70
2024/02/12 10:46:12;;;;;;;0.90;0.65;;;9.10;99.90;;;;;;5024565;28;20026;-70
2024/02/12 10:48:44;;;;;;;2.20;1.00;;;9.10;99.90;;;;;;4993431;28;20026;-70
2024/02/12 10:51:10;;;;;;;1.00;0.80;;;9.10;99.90;;;;;;5014594;28;20034;-70
2024/02/12 10:53:39;;;;;;;2.20;1.33;;;9.20;99.90;;;;;;5021558;28;20121;-70
2024/02/12 10:56:07;;;;;;;2.10;1.08;;;9.40;99.90;;;;;;5022845;28;20083;-71
2024/02/12 10:58:38;;;;;;;4.20;1.42;;;9.50;99.90;;;;;;4995484;28;20090;-71
2024/02/12 11:01:05;;;;;;;1.63;0.95;;;9.60;99.90;;;;;;5027070;28;20029;-70
2024/02/12 11:03:39;;;;;;;2.65;1.35;;;9.60;99.90;;;;;;4989469;28;20046;-69
2024/02/12 11:06:14;;;;;;;8.02;1.10;;;9.50;99.90;;;;;;5004380;28;20026;-71
2024/02/12 11:08:41;;;;;;;1.20;0.85;;;9.60;99.90;;;;;;4994254;28;20021;-69
2024/02/12 11:11:18;;;;;;;6.00;1.73;;;9.60;99.90;;;;;;5011415;28;20032;-70
2024/02/12 11:13:46;;;;;;;2.13;0.80;;;9.70;99.90;;;;;;5009335;28;20034;-70
2024/02/12 11:16:22;;;;;;;1.80;1.25;;;9.60;99.90;;;;;;5010438;28;20577;-70
2024/02/12 11:18:58;;;;;;;1.63;1.35;;;9.70;99.90;;;;;;5010273;28;20079;-69
2024/02/12 11:21:35;;;;;;;1.88;0.80;;;9.60;99.90;;;;;;5013678;28;20040;-69
2024/02/12 11:24:08;;;;;;;1.20;0.98;;;9.70;99.90;;;;;;4987669;28;20061;-69
2024/02/12 11:26:40;;;;;;;1.25;0.80;;;9.70;99.90;;;;;;4994313;28;20029;-69
2024/02/12 11:29:07;;;;;;;2.30;1.25;;;9.60;99.90;;;;;;5019947;28;20097;-69
2024/02/12 11:31:39;;;;;;;1.27;0.73;;;9.50;99.90;;;;;;4991990;28;20041;-70
2024/02/12 11:34:12;;;;;;;4.82;1.00;;;9.60;99.90;;;;;;5018636;28;20467;-70
2024/02/12 11:36:40;;;;;;;2.67;1.30;;;9.50;99.90;;;;;;4992942;28;20038;-70
2024/02/12 11:39:09;;;;;;;3.13;0.90;;;9.40;99.90;;;;;;5025181;28;20030;-70
2024/02/12 11:41:37;;;;;;;1.08;0.98;;;9.40;99.90;;;;;;5025860;28;20387;-70
2024/02/12 11:44:07;;;;;;;4.00;1.40;;;9.40;99.90;;;;;;5011027;28;20188;-70
2024/02/12 11:46:38;;;;;;;1.05;0.63;;;9.30;99.90;;;;;;5022570;28;20745;-70
2024/02/12 11:49:10;;;;;;;;;;;9.30;99.90;;;;;;5025345;28;20112;-69
2024/02/12 11:51:39;;;;;;;2.60;1.13;;;9.30;99.90;;;;;;4995165;28;19917;-70
2024/02/12 11:54:06;;;;;;;1.67;0.63;;;9.30;99.90;;;;;;5028478;28;20038;-71
2024/02/12 11:56:36;;;;;;;4.20;1.00;;;9.10;99.90;;;;;;4984183;28;20057;-71
2024/02/12 11:59:04;;;;;;;1.23;0.88;;;9.10;99.90;;;;;;5009970;28;20033;-71
2024/02/12 12:01:31;;;;;;;7.68;1.55;;;9.10;99.90;;;;;;5029102;28;20033;-71
2024/02/12 12:03:58;;;;;;;1.95;1.30;;;9.10;99.90;;;;;;4994722;28;20036;-72
2024/02/12 12:06:31;;;;;;;1.25;0.70;;;9.10;99.90;;;;;;5018749;28;20815;-70
2024/02/12 12:08:58;;;;;;;4.50;1.17;;;9.10;99.90;;;;;;4988625;28;20448;-69
2024/02/12 12:11:24;;;;;;;1.42;1.02;;;9.20;99.90;;;;;;5012063;28;20032;-70
2024/02/12 12:14:00;;;;;;;2.25;1.20;;;9.30;99.90;;;;;;5013604;28;20405;-69
2024/02/12 12:16:27;;;;;;;2.67;1.27;;;9.30;99.90;;;;;;4996174;28;20029;-70
2024/02/12 12:18:54;;;;;;;1.58;0.77;;;9.30;99.90;;;;;;5003585;28;20029;-71
2024/02/12 12:21:20;;;;;;;1.83;1.13;;;9.40;99.90;;;;;;5020416;28;20545;-70
2024/02/12 12:23:51;;;;;;;2.35;1.30;;;9.40;99.90;;;;;;4990715;28;20044;-70
2024/02/12 12:26:17;;;;;;;2.20;0.80;;;9.40;99.90;;;;;;5013229;28;20029;-69
2024/02/12 12:28:44;;;;;;;3.63;1.30;;;9.40;99.90;;;;;;4994171;28;20037;-70
2024/02/12 12:31:11;;;;;;;7.72;1.35;;;9.40;99.90;;;;;;4999955;28;20478;-70
2024/02/12 12:33:37;;;;;;;2.75;1.08;;;9.50;99.90;;;;;;5010378;28;20093;-68
2024/02/12 12:36:03;;;;;;;7.65;1.10;;;9.40;99.90;;;;;;5012626;28;20026;-68
2024/02/12 12:38:29;;;;;;;0.73;0.70;;;9.50;99.90;;;;;;5012829;28;20115;-70
2024/02/12 12:40:56;;;;;;;4.57;0.70;;;9.50;99.90;;;;;;4996867;28;20056;-69
2024/02/12 12:43:22;;;;;;;1.58;1.00;;;9.50;99.90;;;;;;4995162;28;20029;-69
2024/02/12 12:45:51;;;;;;;7.70;1.33;;;9.50;99.90;;;;;;4998486;28;20041;-68
2024/02/12 12:48:17;;;;;;;2.75;1.08;;;9.50;99.90;;;;;;5014535;28;20037;-69
2024/02/12 12:50:43;;;;;;;1.55;0.73;;;9.50;99.90;;;;;;5012292;28;20034;-69
2024/02/12 12:53:09;;;;;;;3.35;0.63;;;9.50;99.90;;;;;;5011862;28;20434;-68
2024/02/12 12:55:36;;;;;;;1.85;0.68;;;9.50;99.90;;;;;;5024943;28;20040;-69
2024/02/12 12:58:02;;;;;;;2.33;0.90;;;9.50;99.90;;;;;;5013097;28;20049;-69
2024/02/12 13:00:31;;;;;;;2.75;0.70;;;9.50;99.90;;;;;;5017657;28;20029;-73
2024/02/12 13:02:57;;;;;;;1.92;0.98;;;9.60;99.90;;;;;;5021680;28;20371;-74
2024/02/12 13:05:23;;;;;;;4.85;1.00;;;9.60;99.90;;;;;;5031549;28;20533;-74
2024/02/12 13:07:50;;;;;;;3.05;1.15;;;9.70;99.90;;;;;;5004468;28;20130;-74
2024/02/12 13:10:17;;;;;;;1.30;0.95;;;9.60;99.90;;;;;;5007482;28;20026;-75
2024/02/12 13:12:45;;;;;;;1.48;0.70;;;9.60;99.90;;;;;;5030787;23;20060;-77
2024/02/12 13:15:12;;;;;;;2.03;0.95;;;9.50;99.90;;;;;;5050377;28;20037;-75
2024/02/12 13:17:41;;;;;;;8.65;1.65;;;9.40;99.90;;;;;;5012746;28;20490;-76
2024/02/12 13:20:20;;;;;;;5.07;0.95;;;9.40;99.90;;;;;;5034630;28;20525;-77
2024/02/12 13:22:58;;;;;;;1.35;0.90;;;9.40;99.90;;;;;;5033927;28;20057;-76